createdAt,value
2023-02-25T00:02:01.690Z,101178.13
2023-02-25T00:04:32.013Z,101179.41
2023-02-25T00:07:00.279Z,101178.75
2023-02-25T00:09:29.363Z,101174.44
2023-02-25T00:11:59.210Z,101188.94
2023-02-25T00:14:27.382Z,101185.44
2023-02-25T00:16:56.168Z,101189.38
2023-02-25T00:19:25.436Z,101175.50
2023-02-25T00:21:53.819Z,101184.63
2023-02-25T00:24:22.098Z,101187.63
2023-02-25T00:26:50.584Z,101189.66
2023-02-25T00:29:20.927Z,101178.44
2023-02-25T00:31:49.503Z,101192.63
2023-02-25T00:34:18.397Z,101200.69
2023-02-25T00:36:46.612Z,101196.53
2023-02-25T00:39:16.133Z,101197.59
2023-02-25T00:41:44.780Z,101192.38
2023-02-25T00:44:13.244Z,101195.22
2023-02-25T00:46:43.541Z,101207.69
2023-02-25T00:49:16.710Z,101207.03
2023-02-25T00:51:53.140Z,101202.66
2023-02-25T00:54:21.554Z,101209.91
2023-02-25T00:56:49.786Z,101203.81
2023-02-25T00:59:18.152Z,101211.91
2023-02-25T01:01:49.031Z,101212.03
2023-02-25T01:04:17.238Z,101209.44
2023-02-25T01:06:46.400Z,101208.69
2023-02-25T01:09:15.578Z,101207.06
2023-02-25T01:11:46.407Z,101200.16
2023-02-25T01:14:17.730Z,101205.59
2023-02-25T01:16:48.044Z,101211.91
2023-02-25T01:19:18.465Z,101207.63
2023-02-25T01:21:49.207Z,101200.69
2023-02-25T01:24:20.887Z,101205.34
2023-02-25T01:26:51.239Z,101212.78
2023-02-25T01:29:21.909Z,101209.38
2023-02-25T01:31:53.612Z,101220.22
2023-02-25T01:34:29.034Z,101214.22
2023-02-25T01:36:57.628Z,101221.34
2023-02-25T01:39:27.604Z,101226.66
2023-02-25T01:41:57.177Z,101226.88
2023-02-25T01:44:29.967Z,101237.53
2023-02-25T01:47:01.557Z,101234.94
2023-02-25T01:49:34.285Z,101235.16
2023-02-25T01:52:07.682Z,101234.31
2023-02-25T01:54:37.301Z,101247.03
2023-02-25T01:57:09.591Z,101245.59
2023-02-25T01:59:41.787Z,101243.81
2023-02-25T02:02:14.271Z,101241.50
2023-02-25T02:04:46.964Z,101250.44
2023-02-25T02:07:15.319Z,101251.59
2023-02-25T02:09:56.776Z,101244.00
2023-02-25T02:12:27.000Z,101250.44
2023-02-25T02:14:57.191Z,101248.16
2023-02-25T02:17:31.947Z,101256.31
2023-02-25T02:20:15.009Z,101253.06
2023-02-25T02:22:58.125Z,101248.88
2023-02-25T02:26:05.708Z,101244.53
2023-02-25T02:29:08.781Z,101255.38
2023-02-25T02:31:57.724Z,101250.97
2023-02-25T02:34:37.440Z,101238.63
2023-02-25T02:37:15.270Z,101245.66
2023-02-25T02:39:52.872Z,101248.25
2023-02-25T02:42:32.933Z,101248.13
2023-02-25T02:45:09.505Z,101247.28
2023-02-25T02:47:42.023Z,101242.13
2023-02-25T02:50:13.409Z,101246.59
2023-02-25T02:52:45.698Z,101244.91
2023-02-25T02:55:22.443Z,101238.81
2023-02-25T02:57:58.159Z,101244.03
2023-02-25T03:00:30.527Z,101248.56
2023-02-25T03:03:05.434Z,101247.72
2023-02-25T03:05:36.807Z,101245.91
2023-02-25T03:08:10.872Z,101243.25
2023-02-25T03:10:38.874Z,101244.31
2023-02-25T03:13:07.082Z,101242.34
2023-02-25T03:15:36.136Z,101238.81
2023-02-25T03:18:11.357Z,101245.06
2023-02-25T03:20:43.392Z,101252.19
2023-02-25T03:23:16.566Z,101245.91
2023-02-25T03:25:48.522Z,101254.94
2023-02-25T03:28:24.890Z,101253.41
2023-02-25T03:30:59.626Z,101246.56
2023-02-25T03:33:34.574Z,101252.09
2023-02-25T03:36:07.321Z,101253.97
2023-02-25T03:38:38.806Z,101252.34
2023-02-25T03:41:08.424Z,101250.72
2023-02-25T03:43:43.419Z,101243.88
2023-02-25T03:46:12.399Z,101248.44
2023-02-25T03:48:42.932Z,101249.53
2023-02-25T03:51:14.780Z,101255.13
2023-02-25T03:53:42.785Z,101264.22
2023-02-25T03:56:13.020Z,101255.50
2023-02-25T03:58:44.875Z,101252.94
2023-02-25T04:01:17.305Z,101252.16
2023-02-25T04:03:47.198Z,101255.84
2023-02-25T04:06:15.751Z,101254.13
2023-02-25T04:08:44.104Z,101250.81
2023-02-25T04:11:12.272Z,101250.88
2023-02-25T04:13:40.316Z,101250.22
2023-02-25T04:16:09.534Z,101262.53
2023-02-25T04:18:38.206Z,101258.25
2023-02-25T04:21:08.367Z,101245.06
2023-02-25T04:23:37.480Z,101247.81
2023-02-25T04:26:06.415Z,101249.78
2023-02-25T04:28:34.427Z,101260.31
2023-02-25T04:31:02.524Z,101254.16
2023-02-25T04:33:31.106Z,101259.56
2023-02-25T04:35:59.108Z,101253.41
2023-02-25T04:38:28.667Z,101256.91
2023-02-25T04:40:57.122Z,101254.16
2023-02-25T04:43:25.455Z,101250.63
2023-02-25T04:45:56.016Z,101247.13
2023-02-25T04:48:24.531Z,101252.34
2023-02-25T04:50:52.675Z,101254.94
2023-02-25T04:53:20.802Z,101263.91
2023-02-25T04:55:50.392Z,101274.53
2023-02-25T04:58:18.354Z,101268.47
2023-02-25T05:00:49.478Z,101271.88
2023-02-25T05:03:17.476Z,101272.94
2023-02-25T05:05:45.590Z,101282.63
2023-02-25T05:08:13.716Z,101274.66
2023-02-25T05:10:42.709Z,101277.38
2023-02-25T05:13:12.605Z,101276.44
2023-02-25T05:15:40.802Z,101265.88
2023-02-25T05:18:09.373Z,101272.16
2023-02-25T05:20:41.813Z,101266.84
2023-02-25T05:23:10.627Z,101265.03
2023-02-25T05:25:41.481Z,101269.50
2023-02-25T05:28:12.124Z,101268.75
2023-02-25T05:30:40.840Z,101275.75
2023-02-25T05:33:09.300Z,101272.31
2023-02-25T05:35:40.891Z,101278.56
2023-02-25T05:38:09.216Z,101277.56
2023-02-25T05:40:37.425Z,101287.31
2023-02-25T05:43:05.998Z,101294.50
2023-02-25T05:45:36.523Z,101297.25
2023-02-25T05:48:04.714Z,101299.91
2023-02-25T05:50:34.784Z,101301.63
2023-02-25T05:53:02.996Z,101294.59
2023-02-25T05:55:30.933Z,101293.75
2023-02-25T05:57:59.276Z,101297.34
2023-02-25T06:00:27.417Z,101303.53
2023-02-25T06:02:56.952Z,101312.44
2023-02-25T06:05:25.011Z,101309.84
2023-02-25T06:07:53.180Z,101311.41
2023-02-25T06:10:22.407Z,101302.66
2023-02-25T06:12:50.425Z,101314.16
2023-02-25T06:15:18.588Z,101314.16
2023-02-25T06:17:46.694Z,101316.88
2023-02-25T06:20:16.729Z,101319.47
2023-02-25T06:22:47.714Z,101320.47
2023-02-25T06:25:15.758Z,101324.94
2023-02-25T06:27:43.794Z,101321.41
2023-02-25T06:30:12.801Z,101324.16
2023-02-25T06:32:40.833Z,101329.53
2023-02-25T06:35:10.007Z,101328.88
2023-02-25T06:37:39.586Z,101337.75
2023-02-25T06:40:08.971Z,101335.19
2023-02-25T06:42:37.008Z,101335.19
2023-02-25T06:45:05.579Z,101336.31
2023-02-25T06:47:34.065Z,101337.94
2023-02-25T06:50:02.694Z,101347.72
2023-02-25T06:52:30.960Z,101342.41
2023-02-25T06:55:00.520Z,101353.88
2023-02-25T06:57:28.520Z,101361.06
2023-02-25T06:59:56.677Z,101361.06
2023-02-25T07:02:24.889Z,101359.44
2023-02-25T07:04:54.589Z,101358.59
2023-02-25T07:07:23.225Z,101372.84
2023-02-25T07:09:51.524Z,101375.50
2023-02-25T07:12:21.125Z,101370.38
2023-02-25T07:14:49.198Z,101365.06
2023-02-25T07:17:18.488Z,101382.00
2023-02-25T07:19:46.564Z,101369.75
2023-02-25T07:22:16.949Z,101362.78
2023-02-25T07:24:45.958Z,101371.63
2023-02-25T07:27:14.957Z,101368.34
2023-02-25T07:29:44.603Z,101375.53
2023-02-25T07:32:12.760Z,101381.72
2023-02-25T07:34:40.852Z,101374.59
2023-02-25T07:37:08.869Z,101380.66
2023-02-25T07:39:37.032Z,101385.97
2023-02-25T07:42:05.424Z,101378.03
2023-02-25T07:44:34.182Z,101386.69
2023-02-25T07:47:04.617Z,101398.94
2023-02-25T07:49:32.737Z,101399.72
2023-02-25T07:52:01.387Z,101409.25
2023-02-25T07:54:29.581Z,101416.13
2023-02-25T07:56:57.739Z,101413.31
2023-02-25T07:59:25.965Z,101411.19
2023-02-25T08:01:54.091Z,101415.31
2023-02-25T08:04:24.828Z,101425.50
2023-02-25T08:06:53.188Z,101419.91
2023-02-25T08:09:21.254Z,101424.06
2023-02-25T08:11:49.353Z,101429.84
2023-02-25T08:14:17.803Z,101429.69
2023-02-25T08:16:46.110Z,101426.69
2023-02-25T08:19:14.260Z,101430.78
2023-02-25T08:21:43.756Z,101434.84
2023-02-25T08:24:11.828Z,101439.81
2023-02-25T08:26:41.229Z,101437.75
2023-02-25T08:29:09.573Z,101444.63
2023-02-25T08:31:37.840Z,101441.50
2023-02-25T08:34:06.276Z,101433.28
2023-02-25T08:36:37.527Z,101438.34
2023-02-25T08:39:12.463Z,101430.88
2023-02-25T08:41:42.150Z,101437.56
2023-02-25T08:44:11.453Z,101430.00
2023-02-25T08:46:41.032Z,101434.97
2023-02-25T08:49:09.648Z,101433.84
2023-02-25T08:51:41.150Z,101443.09
2023-02-25T08:54:15.625Z,101442.75
2023-02-25T08:56:45.130Z,101443.31
2023-02-25T08:59:16.184Z,101442.09
2023-02-25T09:01:49.143Z,101451.53
2023-02-25T09:04:19.339Z,101444.91
2023-02-25T09:06:48.777Z,101448.06
2023-02-25T09:09:20.610Z,101447.88
2023-02-25T09:11:50.330Z,101442.19
2023-02-25T09:14:34.998Z,101436.56
2023-02-25T09:17:05.141Z,101442.41
2023-02-25T09:19:38.831Z,101441.09
2023-02-25T09:22:07.803Z,101430.91
2023-02-25T09:24:37.988Z,101431.31
2023-02-25T09:27:08.276Z,101435.28
2023-02-25T09:29:40.331Z,101438.41
2023-02-25T09:32:17.925Z,101446.06
2023-02-25T09:34:46.754Z,101448.44
2023-02-25T09:37:15.191Z,101444.72
2023-02-25T09:39:44.787Z,101443.75
2023-02-25T09:42:18.000Z,101458.81
2023-02-25T09:44:48.809Z,101452.81
2023-02-25T09:47:22.744Z,101457.84
2023-02-25T09:49:55.305Z,101458.22
2023-02-25T09:52:28.988Z,101445.66
2023-02-25T09:55:05.097Z,101440.31
2023-02-25T09:57:41.529Z,101438.22
2023-02-25T10:00:21.519Z,101441.56
2023-02-25T10:02:55.564Z,101450.97
2023-02-25T10:08:35.067Z,101441.81
2023-02-25T10:11:10.192Z,101453.78
2023-02-25T10:13:48.117Z,101455.22
2023-02-25T10:16:38.474Z,101451.28
2023-02-25T10:19:18.190Z,101454.50
2023-02-25T10:22:01.026Z,101453.91
2023-02-25T10:24:35.100Z,101464.22
2023-02-25T10:27:17.001Z,101467.22
2023-02-25T10:29:49.735Z,101464.25
2023-02-25T10:32:23.362Z,101478.38
2023-02-25T10:34:53.263Z,101487.31
2023-02-25T10:37:27.475Z,101485.97
2023-02-25T10:39:58.164Z,101485.44
2023-02-25T10:42:27.980Z,101495.66
2023-02-25T10:45:01.187Z,101485.31
2023-02-25T10:47:35.697Z,101480.97
2023-02-25T10:50:16.672Z,101480.22
2023-02-25T10:52:59.467Z,101474.38
2023-02-25T10:55:33.224Z,101479.28
2023-02-25T10:58:05.127Z,101478.00
2023-02-25T11:00:36.533Z,101474.06
2023-02-25T11:03:05.954Z,101464.03
2023-02-25T11:05:41.975Z,101482.94
2023-02-25T11:08:28.098Z,101469.69
2023-02-25T11:11:04.023Z,101473.22
2023-02-25T11:13:38.848Z,101475.88
2023-02-25T11:16:09.936Z,101464.41
2023-02-25T11:18:39.440Z,101471.00
2023-02-25T11:21:10.188Z,101470.25
2023-02-25T11:23:45.439Z,101462.22
2023-02-25T11:26:18.331Z,101463.25
2023-02-25T11:28:51.854Z,101464.41
2023-02-25T11:31:22.065Z,101465.19
2023-02-25T11:33:57.401Z,101464.84
2023-02-25T11:36:31.073Z,101462.69
2023-02-25T11:39:08.941Z,101466.50
2023-02-25T11:41:37.225Z,101462.94
2023-02-25T11:44:28.952Z,101462.25
2023-02-25T11:47:04.382Z,101466.81
2023-02-25T11:49:52.357Z,101461.00
2023-02-25T11:52:27.754Z,101461.66
2023-02-25T11:55:12.820Z,101460.09
2023-02-25T11:57:52.307Z,101469.16
2023-02-25T12:00:27.921Z,101458.19
2023-02-25T12:03:11.975Z,101470.03
2023-02-25T12:05:59.834Z,101458.31
2023-02-25T12:08:40.962Z,101462.81
2023-02-25T12:11:45.513Z,101465.50
2023-02-25T12:14:51.398Z,101463.94
2023-02-25T12:17:42.413Z,101460.03
2023-02-25T12:20:52.184Z,101464.41
2023-02-25T12:23:54.041Z,101464.28
2023-02-25T12:26:36.304Z,101464.78
2023-02-25T12:29:38.591Z,101463.94
2023-02-25T12:32:46.700Z,101457.47
2023-02-25T12:35:39.757Z,101467.09
2023-02-25T12:38:40.785Z,101455.13
2023-02-25T12:41:27.090Z,101459.03
2023-02-25T12:44:01.921Z,101461.78
2023-02-25T12:46:49.238Z,101452.59
2023-02-25T12:49:49.073Z,101452.47
2023-02-25T12:52:41.180Z,101462.19
2023-02-25T12:55:38.456Z,101452.16
2023-02-25T12:58:24.756Z,101453.66
2023-02-25T13:01:14.617Z,101453.75
2023-02-25T13:04:13.603Z,101449.44
2023-02-25T13:07:08.534Z,101446.50
2023-02-25T13:09:47.336Z,101455.19
2023-02-25T13:12:32.409Z,101444.88
2023-02-25T13:15:11.472Z,101440.41
2023-02-25T13:17:59.435Z,101442.25
2023-02-25T13:21:12.271Z,101441.66
2023-02-25T13:24:01.341Z,101435.88
2023-02-25T13:26:46.435Z,101441.59
2023-02-25T13:29:29.428Z,101433.22
2023-02-25T13:32:19.947Z,101437.47
2023-02-25T13:34:59.397Z,101437.25
2023-02-25T13:37:42.972Z,101435.97
2023-02-25T13:40:33.797Z,101431.72
2023-02-25T13:43:35.418Z,101431.22
2023-02-25T13:46:37.420Z,101434.34
2023-02-25T13:49:32.561Z,101428.28
2023-02-25T13:52:26.226Z,101428.50
2023-02-25T13:55:25.164Z,101433.88
2023-02-25T13:58:10.349Z,101423.09
2023-02-25T14:01:09.199Z,101422.38
2023-02-25T14:04:03.978Z,101431.56
2023-02-25T14:06:48.652Z,101435.97
2023-02-25T14:09:32.364Z,101430.63
2023-02-25T14:12:13.328Z,101431.13
2023-02-25T14:15:17.251Z,101421.88
2023-02-25T14:17:59.075Z,101428.41
2023-02-25T14:20:41.781Z,101427.34
2023-02-25T14:23:17.674Z,101425.38
2023-02-25T14:26:13.768Z,101430.09
2023-02-25T14:28:55.025Z,101424.41
2023-02-25T14:31:29.208Z,101423.69
2023-02-25T14:34:20.033Z,101429.66
2023-02-25T14:37:01.418Z,101424.94
2023-02-25T14:39:45.185Z,101414.34
2023-02-25T14:48:47.202Z,101427.13
2023-02-25T14:52:03.083Z,101415.88
2023-02-25T14:55:10.742Z,101423.28
2023-02-25T14:58:38.312Z,101423.09
2023-02-25T15:01:55.364Z,101433.44
2023-02-25T15:19:07.342Z,101433.09
2023-02-25T15:28:48.810Z,101458.75
2023-02-25T15:34:23.153Z,101454.22
2023-02-25T15:37:13.680Z,101459.44
2023-02-25T15:39:55.391Z,101461.38
2023-02-25T15:43:06.136Z,101453.81
2023-02-25T15:49:45.024Z,101453.38
2023-02-25T15:53:13.749Z,101451.69
2023-02-25T15:59:20.916Z,101455.38
2023-02-25T16:04:51.189Z,101453.78
2023-02-25T16:07:29.267Z,101453.41
2023-02-25T16:10:08.473Z,101465.09
2023-02-25T16:12:39.891Z,101463.97
2023-02-25T16:15:14.462Z,101465.53
2023-02-25T16:17:59.585Z,101466.84
2023-02-25T16:20:35.062Z,101462.31
2023-02-25T16:23:06.036Z,101465.44
2023-02-25T16:25:45.043Z,101475.44
2023-02-25T16:28:26.896Z,101477.25
2023-02-25T16:31:03.485Z,101480.41
2023-02-25T16:33:43.053Z,101484.66
2023-02-25T16:36:20.355Z,101490.03
2023-02-25T16:38:58.417Z,101491.63
2023-02-25T16:41:36.327Z,101491.00
2023-02-25T16:44:06.985Z,101492.53
2023-02-25T16:46:38.268Z,101495.03
2023-02-25T16:49:10.355Z,101494.22
2023-02-25T16:51:40.482Z,101506.03
2023-02-25T16:54:14.797Z,101501.16
2023-02-25T16:56:46.780Z,101488.09
2023-02-25T16:59:22.969Z,101499.97
2023-02-25T17:02:00.316Z,101503.84
2023-02-25T17:04:38.013Z,101506.72
2023-02-25T17:07:15.389Z,101500.97
2023-02-25T17:09:54.328Z,101507.47
2023-02-25T17:12:34.070Z,101510.59
2023-02-25T17:15:06.539Z,101512.88
2023-02-25T17:17:39.694Z,101523.25
2023-02-25T17:20:17.948Z,101520.06
2023-02-25T17:22:47.325Z,101520.50
2023-02-25T17:25:19.410Z,101531.28
2023-02-25T17:28:04.584Z,101529.91
2023-02-25T17:30:43.673Z,101528.19
2023-02-25T17:33:30.193Z,101525.00
2023-02-25T17:36:16.344Z,101525.00
2023-02-25T17:38:57.018Z,101519.84
2023-02-25T17:41:27.511Z,101521.25
2023-02-25T17:43:55.976Z,101521.88
2023-02-25T17:46:36.434Z,101529.16
2023-02-25T17:49:07.626Z,101531.38
2023-02-25T17:51:39.348Z,101535.44
2023-02-25T17:54:17.416Z,101548.34
2023-02-25T17:56:56.383Z,101539.25
2023-02-25T17:59:38.662Z,101542.53
2023-02-25T18:02:32.797Z,101553.09
2023-02-25T18:05:26.156Z,101544.94
2023-02-25T18:08:05.639Z,101560.00
2023-02-25T18:10:48.485Z,101574.91
2023-02-25T18:13:34.392Z,101571.41
2023-02-25T18:16:39.699Z,101576.66
2023-02-25T18:19:45.848Z,101579.34
2023-02-25T18:22:32.066Z,101581.94
2023-02-25T18:27:44.655Z,101588.22
2023-02-25T18:30:20.758Z,101595.06
2023-02-25T18:32:49.435Z,101595.34
2023-02-25T18:35:20.225Z,101592.00
2023-02-25T18:37:52.239Z,101591.31
2023-02-25T18:40:26.356Z,101603.50
2023-02-25T18:42:55.023Z,101598.94
2023-02-25T18:45:27.552Z,101593.44
2023-02-25T18:47:57.424Z,101602.97
2023-02-25T18:50:26.050Z,101608.03
2023-02-25T18:52:55.409Z,101610.19
2023-02-25T18:55:26.444Z,101609.75
2023-02-25T18:57:55.420Z,101609.47
2023-02-25T19:00:27.812Z,101617.06
2023-02-25T19:03:00.165Z,101616.50
2023-02-25T19:05:29.845Z,101620.72
2023-02-25T19:07:58.917Z,101614.03
2023-02-25T19:10:30.971Z,101614.59
2023-02-25T19:13:03.635Z,101620.50
2023-02-25T19:15:39.443Z,101624.78
2023-02-25T19:18:07.760Z,101624.31
2023-02-25T19:24:17.951Z,101622.97
2023-02-25T19:26:52.572Z,101619.03
2023-02-25T19:29:21.391Z,101610.84
2023-02-25T19:31:52.166Z,101610.75
2023-02-25T19:34:20.927Z,101611.50
2023-02-25T19:36:52.157Z,101611.44
2023-02-25T19:39:20.608Z,101608.78
2023-02-25T19:41:49.058Z,101614.97
2023-02-25T19:44:17.424Z,101619.16
2023-02-25T19:46:46.078Z,101623.53
2023-02-25T19:49:15.924Z,101627.91
2023-02-25T19:51:44.064Z,101627.16
2023-02-25T19:54:12.181Z,101636.22
2023-02-25T19:56:40.700Z,101636.59
2023-02-25T19:59:12.278Z,101639.72
2023-02-25T20:01:41.418Z,101646.53
2023-02-25T20:04:10.877Z,101649.00
2023-02-25T20:06:40.690Z,101663.00
2023-02-25T20:09:10.765Z,101661.00
2023-02-25T20:11:39.514Z,101661.69
2023-02-25T20:14:08.289Z,101664.91
2023-02-25T20:16:36.911Z,101664.00
2023-02-25T20:19:05.335Z,101676.84
2023-02-25T20:21:33.769Z,101673.19
2023-02-25T20:24:04.973Z,101675.44
2023-02-25T20:26:33.469Z,101677.69
2023-02-25T20:29:03.163Z,101687.00
2023-02-25T20:31:32.744Z,101688.31
2023-02-25T20:34:05.350Z,101690.56
2023-02-25T20:36:39.966Z,101697.00
2023-02-25T20:39:29.952Z,101702.69
2023-02-25T20:41:59.241Z,101704.72
2023-02-25T20:44:28.277Z,101710.97
2023-02-25T20:46:58.069Z,101718.94
2023-02-25T20:49:26.859Z,101721.44
2023-02-25T20:51:56.701Z,101724.75
2023-02-25T20:54:26.577Z,101721.06
2023-02-25T20:56:54.650Z,101723.28
2023-02-25T20:59:23.424Z,101724.66
2023-02-25T21:01:52.023Z,101735.72
2023-02-25T21:04:20.205Z,101739.78
2023-02-25T21:06:48.670Z,101735.78
2023-02-25T21:09:17.164Z,101743.53
2023-02-25T21:11:48.104Z,101738.88
2023-02-25T21:14:16.253Z,101750.91
2023-02-25T21:16:44.912Z,101746.34
2023-02-25T21:19:13.408Z,101747.47
2023-02-25T21:21:41.567Z,101759.25
2023-02-25T21:24:12.677Z,101764.94
2023-02-25T21:26:40.844Z,101775.97
2023-02-25T21:29:11.335Z,101780.09
2023-02-25T21:31:39.840Z,101783.09
2023-02-25T21:34:13.079Z,101786.72
2023-02-25T21:36:42.074Z,101781.63
2023-02-25T21:39:12.554Z,101783.59
2023-02-25T21:41:44.429Z,101785.50
2023-02-25T21:44:14.860Z,101787.41
2023-02-25T21:46:42.900Z,101785.59
2023-02-25T21:49:11.773Z,101785.50
2023-02-25T21:51:40.369Z,101783.59
2023-02-25T21:54:08.957Z,101785.34
2023-02-25T21:56:36.943Z,101788.94
2023-02-25T21:59:06.732Z,101792.50
2023-02-25T22:01:38.890Z,101792.38
2023-02-25T22:04:09.866Z,101797.03
2023-02-25T22:06:38.288Z,101791.00
2023-02-25T22:09:07.305Z,101793.06
2023-02-25T22:11:37.580Z,101799.56
2023-02-25T22:14:07.581Z,101798.84
2023-02-25T22:16:40.281Z,101801.78
2023-02-25T22:19:08.704Z,101801.94
2023-02-25T22:21:37.817Z,101806.56
2023-02-25T22:24:06.810Z,101803.16
2023-02-25T22:26:36.435Z,101815.50
2023-02-25T22:29:06.918Z,101816.38
2023-02-25T22:31:36.692Z,101818.19
2023-02-25T22:34:05.433Z,101821.84
2023-02-25T22:36:33.946Z,101814.91
2023-02-25T22:39:05.827Z,101817.72
2023-02-25T22:41:33.980Z,101824.94
2023-02-25T22:44:03.401Z,101828.59
2023-02-25T22:46:33.843Z,101841.25
2023-02-25T22:49:04.847Z,101842.16
2023-02-25T22:51:35.194Z,101823.72
2023-02-25T22:54:05.013Z,101831.00
2023-02-25T22:56:33.408Z,101828.47
2023-02-25T22:59:02.175Z,101832.25
2023-02-25T23:01:30.195Z,101841.25
2023-02-25T23:04:02.039Z,101845.81
2023-02-25T23:06:48.616Z,101850.41
2023-02-25T23:09:18.127Z,101854.19
2023-02-25T23:11:46.296Z,101839.25
2023-02-25T23:14:15.468Z,101843.75
2023-02-25T23:16:46.525Z,101839.53
2023-02-25T23:19:17.249Z,101841.44
2023-02-25T23:21:47.279Z,101853.94
2023-02-25T23:24:18.721Z,101859.44
2023-02-25T23:26:50.321Z,101855.28
2023-02-25T23:29:18.675Z,101861.59
2023-02-25T23:31:48.429Z,101852.91
2023-02-25T23:34:19.906Z,101852.22
2023-02-25T23:36:49.626Z,101861.19
2023-02-25T23:39:18.400Z,101863.84
2023-02-25T23:44:15.794Z,101871.94
2023-02-25T23:46:45.206Z,101868.31
2023-02-25T23:49:15.734Z,101861.28
2023-02-25T23:51:45.534Z,101869.41
2023-02-25T23:54:17.172Z,101869.50
2023-02-25T23:56:45.200Z,101877.38
2023-02-25T23:59:13.610Z,101877.56
